Laodcea — YKRM — position and weather

sailwx.info

Track history (hours):
 
Tides and Currents Weather Stations Pressure Air Temp Water Temp Dewpoint Dewpoint Depression Visibility Wind Speed Wind Dir Waves Ship Positions

Laodcea

Last reported at 2018-May-16 17:05 UTC. Time now 2018-Jul-16 12:46 UTC.
Position N 40°01' E 026°13'.
Warning: this ship's position is months out of date.

Length 138 m; draft 8 m.

Type: Cargo ship. MMSI: 46833000.

Date/timePositionNaut miles runAvg speedWind from/ knotsBaromVisibWave heightAir tempDewpointWater temp
2018-May-16 17:05N 40°01' E 026°13'1 9.7
2018-May-16 17:00N 40°01' E 026°12'18 6.3
2018-May-16 14:08N 39°51' E 025°53'3 7.4
2018-May-16 13:44N 39°48' E 025°51'31211.0
2018-May-15 09:15N 36°01' E 030°23'413.6
2018-May-15 09:00N 36°01' E 030°27'713.7
2018-May-15 08:30N 35°60' E 030°36'713.7
2018-May-15 08:00N 35°59' E 030°44'713.8
2018-May-15 07:30N 35°59' E 030°53'713.8
2018-May-15 07:01N 35°58' E 031°01'713.8
2018-May-15 06:30N 35°58' E 031°10'713.8
2018-May-15 06:01N 35°57' E 031°18'713.9
2018-May-15 05:31N 35°57' E 031°27'713.6
2018-May-15 04:58N 35°56' E 031°36'813.4
2018-May-15 04:24N 35°56' E 031°45'513.2
2018-May-15 03:59N 35°55' E 031°52'713.2
2018-May-15 03:29N 35°55' E 031°60'613.2
2018-May-15 03:00N 35°54' E 032°08'713.3
2018-May-15 02:30N 35°54' E 032°16'  
Track history (hours):
 
Tides and Currents Weather Stations Pressure Air Temp Water Temp Dewpoint Dewpoint Depression Visibility Wind Speed Wind Dir Waves Ship Positions

Laodcea

Last reported at 2018-May-16 17:05 UTC. Time now 2018-Jul-16 12:46 UTC.
Position N 40°01' E 026°13'.
Warning: this ship's position is months out of date.

Length 138 m; draft 8 m.

Type: Cargo ship. MMSI: 46833000.

Date/timePositionNaut miles runAvg speedWind from/ knotsBaromVisibWave heightAir tempDewpointWater temp
2018-May-16 17:05N 40°01' E 026°13'1 9.7
2018-May-16 17:00N 40°01' E 026°12'18 6.3
2018-May-16 14:08N 39°51' E 025°53'3 7.4
2018-May-16 13:44N 39°48' E 025°51'31211.0
2018-May-15 09:15N 36°01' E 030°23'413.6
2018-May-15 09:00N 36°01' E 030°27'713.7
2018-May-15 08:30N 35°60' E 030°36'713.7
2018-May-15 08:00N 35°59' E 030°44'713.8
2018-May-15 07:30N 35°59' E 030°53'713.8
2018-May-15 07:01N 35°58' E 031°01'713.8
2018-May-15 06:30N 35°58' E 031°10'713.8
2018-May-15 06:01N 35°57' E 031°18'713.9
2018-May-15 05:31N 35°57' E 031°27'713.6
2018-May-15 04:58N 35°56' E 031°36'813.4
2018-May-15 04:24N 35°56' E 031°45'513.2
2018-May-15 03:59N 35°55' E 031°52'713.2
2018-May-15 03:29N 35°55' E 031°60'613.2
2018-May-15 03:00N 35°54' E 032°08'713.3
2018-May-15 02:30N 35°54' E 032°16'  

Dump ship's entire track history